sensor_id;sensor_type;location;lat;lon;timestamp;pressure;altitude;pressure_sealevel;temperature;humidity
71948;BME280;59820;55.076;38.766;2022-08-03T00:01:17;99908.56;;;18.48;65.80
71948;BME280;59820;55.076;38.766;2022-08-03T00:03:44;99912.63;;;18.43;66.29
71948;BME280;59820;55.076;38.766;2022-08-03T00:06:10;99906.03;;;18.47;66.13
71948;BME280;59820;55.076;38.766;2022-08-03T00:08:36;99925.50;;;18.59;65.74
71948;BME280;59820;55.076;38.766;2022-08-03T00:11:02;99930.44;;;18.63;65.99
71948;BME280;59820;55.076;38.766;2022-08-03T00:13:29;99928.34;;;18.67;65.80
71948;BME280;59820;55.076;38.766;2022-08-03T00:15:56;99925.41;;;18.70;65.92
71948;BME280;59820;55.076;38.766;2022-08-03T00:18:22;99906.09;;;18.67;65.55
71948;BME280;59820;55.076;38.766;2022-08-03T00:20:48;99951.56;;;18.97;65.42
71948;BME280;59820;55.076;38.766;2022-08-03T00:23:14;99929.09;;;18.79;65.52
71948;BME280;59820;55.076;38.766;2022-08-03T00:25:41;99931.00;;;18.88;65.01
71948;BME280;59820;55.076;38.766;2022-08-03T00:28:08;99923.19;;;18.75;64.88
71948;BME280;59820;55.076;38.766;2022-08-03T00:30:34;99930.34;;;18.75;64.68
71948;BME280;59820;55.076;38.766;2022-08-03T00:33:00;99936.66;;;18.74;65.17
71948;BME280;59820;55.076;38.766;2022-08-03T00:35:27;99949.91;;;18.75;65.15
71948;BME280;59820;55.076;38.766;2022-08-03T00:37:53;99942.69;;;18.66;65.85
71948;BME280;59820;55.076;38.766;2022-08-03T00:40:20;99946.88;;;18.59;65.48
71948;BME280;59820;55.076;38.766;2022-08-03T00:45:20;99969.16;;;18.69;65.45
71948;BME280;59820;55.076;38.766;2022-08-03T00:47:48;99956.34;;;18.63;65.73
71948;BME280;59820;55.076;38.766;2022-08-03T00:50:16;99950.91;;;18.53;65.61
71948;BME280;59820;55.076;38.766;2022-08-03T00:52:42;99913.38;;;18.24;66.13
71948;BME280;59820;55.076;38.766;2022-08-03T00:55:09;99963.72;;;18.50;66.42
71948;BME280;59820;55.076;38.766;2022-08-03T00:57:39;99933.78;;;18.25;66.20
71948;BME280;59820;55.076;38.766;2022-08-03T01:00:06;99960.72;;;18.43;66.35
71948;BME280;59820;55.076;38.766;2022-08-03T01:02:33;99960.41;;;18.36;66.57
71948;BME280;59820;55.076;38.766;2022-08-03T01:04:59;99958.13;;;18.31;66.95
71948;BME280;59820;55.076;38.766;2022-08-03T01:07:37;99954.59;;;18.31;66.87
71948;BME280;59820;55.076;38.766;2022-08-03T01:10:14;99944.31;;;18.26;67.24
71948;BME280;59820;55.076;38.766;2022-08-03T01:13:03;99956.63;;;18.39;66.89
71948;BME280;59820;55.076;38.766;2022-08-03T01:18:59;99943.06;;;18.30;67.17
71948;BME280;59820;55.076;38.766;2022-08-03T01:21:31;99942.25;;;18.30;67.28
71948;BME280;59820;55.076;38.766;2022-08-03T01:24:11;99960.25;;;18.38;67.04
71948;BME280;59820;55.076;38.766;2022-08-03T01:27:12;99958.19;;;18.41;66.99
71948;BME280;59820;55.076;38.766;2022-08-03T01:32:27;99954.53;;;18.42;67.04
71948;BME280;59820;55.076;38.766;2022-08-03T01:35:02;99935.91;;;18.31;66.37
71948;BME280;59820;55.076;38.766;2022-08-03T01:37:47;99952.72;;;18.43;66.33
71948;BME280;59820;55.076;38.766;2022-08-03T01:40:15;99949.44;;;18.39;66.13
71948;BME280;59820;55.076;38.766;2022-08-03T01:42:43;99949.53;;;18.28;66.33
71948;BME280;59820;55.076;38.766;2022-08-03T01:45:12;99940.69;;;18.27;66.61
71948;BME280;59820;55.076;38.766;2022-08-03T01:47:40;99947.59;;;18.30;66.55
71948;BME280;59820;55.076;38.766;2022-08-03T01:50:08;99957.28;;;18.31;66.67
71948;BME280;59820;55.076;38.766;2022-08-03T01:52:37;99939.09;;;18.25;66.48
71948;BME280;59820;55.076;38.766;2022-08-03T01:55:06;99957.72;;;18.36;66.61
71948;BME280;59820;55.076;38.766;2022-08-03T01:57:34;99957.47;;;18.39;66.53
71948;BME280;59820;55.076;38.766;2022-08-03T02:00:02;99942.66;;;18.35;66.44
71948;BME280;59820;55.076;38.766;2022-08-03T02:02:38;99920.34;;;18.15;66.55
71948;BME280;59820;55.076;38.766;2022-08-03T02:05:07;99949.72;;;18.36;66.36
71948;BME280;59820;55.076;38.766;2022-08-03T02:07:35;99953.22;;;18.37;66.35
71948;BME280;59820;55.076;38.766;2022-08-03T02:10:04;99956.16;;;18.34;66.90
71948;BME280;59820;55.076;38.766;2022-08-03T02:12:33;99964.38;;;18.42;66.63
71948;BME280;59820;55.076;38.766;2022-08-03T02:15:22;99957.47;;;18.39;66.55
71948;BME280;59820;55.076;38.766;2022-08-03T02:17:49;99965.34;;;18.41;66.59
71948;BME280;59820;55.076;38.766;2022-08-03T02:20:16;99964.97;;;18.45;66.70
71948;BME280;59820;55.076;38.766;2022-08-03T02:22:43;99962.56;;;18.42;66.80
71948;BME280;59820;55.076;38.766;2022-08-03T02:25:13;99957.03;;;18.34;66.41
71948;BME280;59820;55.076;38.766;2022-08-03T02:27:47;99975.50;;;18.47;66.47
71948;BME280;59820;55.076;38.766;2022-08-03T02:30:18;99922.16;;;18.14;66.53
71948;BME280;59820;55.076;38.766;2022-08-03T02:32:50;99946.44;;;18.33;66.71
71948;BME280;59820;55.076;38.766;2022-08-03T02:35:21;99938.38;;;18.23;66.70
71948;BME280;59820;55.076;38.766;2022-08-03T02:37:56;99940.22;;;18.22;67.01
71948;BME280;59820;55.076;38.766;2022-08-03T02:40:28;99947.00;;;18.26;66.83
71948;BME280;59820;55.076;38.766;2022-08-03T02:42:58;99930.38;;;18.23;66.99
71948;BME280;59820;55.076;38.766;2022-08-03T02:45:26;99944.19;;;18.28;66.76
71948;BME280;59820;55.076;38.766;2022-08-03T02:47:56;99958.56;;;18.37;66.98
71948;BME280;59820;55.076;38.766;2022-08-03T02:50:26;99925.84;;;18.13;66.96
71948;BME280;59820;55.076;38.766;2022-08-03T02:52:54;99949.53;;;18.28;66.91
71948;BME280;59820;55.076;38.766;2022-08-03T02:55:22;99962.66;;;18.41;67.04
71948;BME280;59820;55.076;38.766;2022-08-03T02:57:53;99967.91;;;18.42;66.99
71948;BME280;59820;55.076;38.766;2022-08-03T03:00:21;99971.81;;;18.38;67.16
71948;BME280;59820;55.076;38.766;2022-08-03T03:02:58;99932.47;;;18.19;67.08
71948;BME280;59820;55.076;38.766;2022-08-03T03:05:25;99950.63;;;18.25;67.43
71948;BME280;59820;55.076;38.766;2022-08-03T03:07:53;99957.94;;;18.23;67.07
71948;BME280;59820;55.076;38.766;2022-08-03T03:10:24;99925.25;;;18.10;67.39
71948;BME280;59820;55.076;38.766;2022-08-03T03:12:54;99957.34;;;18.20;67.72
71948;BME280;59820;55.076;38.766;2022-08-03T03:15:27;99931.94;;;18.04;67.53
71948;BME280;59820;55.076;38.766;2022-08-03T03:17:58;99961.03;;;18.28;67.15
71948;BME280;59820;55.076;38.766;2022-08-03T03:20:27;99920.59;;;18.12;67.16
71948;BME280;59820;55.076;38.766;2022-08-03T03:22:53;99937.41;;;18.24;67.19
71948;BME280;59820;55.076;38.766;2022-08-03T03:25:21;99930.38;;;18.23;66.89
71948;BME280;59820;55.076;38.766;2022-08-03T03:27:50;99946.44;;;18.33;67.09
71948;BME280;59820;55.076;38.766;2022-08-03T03:30:16;99928.81;;;18.20;66.71
71948;BME280;59820;55.076;38.766;2022-08-03T03:32:43;99943.97;;;18.41;66.44
71948;BME280;59820;55.076;38.766;2022-08-03T03:35:12;99968.66;;;18.54;66.25
71948;BME280;59820;55.076;38.766;2022-08-03T03:37:39;99940.91;;;18.45;66.26
71948;BME280;59820;55.076;38.766;2022-08-03T03:40:05;99966.75;;;18.66;66.31
71948;BME280;59820;55.076;38.766;2022-08-03T03:42:34;99933.91;;;18.54;66.32
71948;BME280;59820;55.076;38.766;2022-08-03T03:45:06;99998.28;;;18.93;65.79
71948;BME280;59820;55.076;38.766;2022-08-03T03:47:33;99986.22;;;18.78;65.97
71948;BME280;59820;55.076;38.766;2022-08-03T03:50:01;99957.94;;;18.75;66.00
71948;BME280;59820;55.076;38.766;2022-08-03T03:52:30;99960.06;;;18.81;65.69
71948;BME280;59820;55.076;38.766;2022-08-03T03:54:56;99957.66;;;18.78;65.57
71948;BME280;59820;55.076;38.766;2022-08-03T03:57:23;99980.44;;;19.04;65.11
71948;BME280;59820;55.076;38.766;2022-08-03T03:59:49;99968.31;;;18.99;64.78
71948;BME280;59820;55.076;38.766;2022-08-03T04:02:15;99989.91;;;19.18;64.39
71948;BME280;59820;55.076;38.766;2022-08-03T04:04:42;99955.69;;;19.11;64.31
71948;BME280;59820;55.076;38.766;2022-08-03T04:07:26;99973.59;;;19.21;64.00
71948;BME280;59820;55.076;38.766;2022-08-03T04:10:15;99962.63;;;19.24;63.80
71948;BME280;59820;55.076;38.766;2022-08-03T04:13:03;99971.78;;;19.41;63.53
71948;BME280;59820;55.076;38.766;2022-08-03T04:15:35;99965.63;;;19.40;63.05
71948;BME280;59820;55.076;38.766;2022-08-03T04:18:03;99979.00;;;19.60;62.45
71948;BME280;59820;55.076;38.766;2022-08-03T04:20:44;99980.44;;;19.64;62.44
71948;BME280;59820;55.076;38.766;2022-08-03T04:23:12;99975.91;;;19.64;62.18
71948;BME280;59820;55.076;38.766;2022-08-03T04:25:39;99989.50;;;19.82;62.17
71948;BME280;59820;55.076;38.766;2022-08-03T04:28:07;100004.16;;;19.98;61.98
71948;BME280;59820;55.076;38.766;2022-08-03T04:30:38;100003.19;;;19.99;61.57
71948;BME280;59820;55.076;38.766;2022-08-03T04:33:15;99968.22;;;19.91;61.59
71948;BME280;59820;55.076;38.766;2022-08-03T04:35:48;99996.09;;;20.17;61.15
71948;BME280;59820;55.076;38.766;2022-08-03T04:38:17;99977.50;;;20.06;61.04
71948;BME280;59820;55.076;38.766;2022-08-03T04:40:45;99974.84;;;20.06;60.52
71948;BME280;59820;55.076;38.766;2022-08-03T04:43:13;100032.91;;;20.35;60.45
71948;BME280;59820;55.076;38.766;2022-08-03T04:45:41;100013.88;;;20.28;60.56
71948;BME280;59820;55.076;38.766;2022-08-03T04:48:09;100017.34;;;20.39;60.37
71948;BME280;59820;55.076;38.766;2022-08-03T04:50:35;100006.25;;;20.33;60.18
71948;BME280;59820;55.076;38.766;2022-08-03T04:53:08;99982.16;;;20.24;59.91
71948;BME280;59820;55.076;38.766;2022-08-03T04:55:34;99980.44;;;20.23;60.38
71948;BME280;59820;55.076;38.766;2022-08-03T04:58:02;99993.69;;;20.34;59.92
71948;BME280;59820;55.076;38.766;2022-08-03T05:00:30;100009.19;;;20.50;60.25
71948;BME280;59820;55.076;38.766;2022-08-03T05:02:57;99970.69;;;20.31;60.31
71948;BME280;59820;55.076;38.766;2022-08-03T05:05:34;100029.84;;;20.67;60.27
71948;BME280;59820;55.076;38.766;2022-08-03T05:08:11;99981.81;;;20.46;60.37
71948;BME280;59820;55.076;38.766;2022-08-03T05:10:37;99993.94;;;20.50;59.90
71948;BME280;59820;55.076;38.766;2022-08-03T05:13:04;100022.25;;;20.73;59.72
71948;BME280;59820;55.076;38.766;2022-08-03T05:15:31;99995.91;;;20.58;59.77
71948;BME280;59820;55.076;38.766;2022-08-03T05:17:57;99996.16;;;20.55;59.72
71948;BME280;59820;55.076;38.766;2022-08-03T05:20:23;100031.72;;;20.77;60.01
71948;BME280;59820;55.076;38.766;2022-08-03T05:22:49;99994.88;;;20.59;60.05
71948;BME280;59820;55.076;38.766;2022-08-03T05:25:23;100006.72;;;20.76;60.48
71948;BME280;59820;55.076;38.766;2022-08-03T05:27:57;100007.84;;;20.83;59.85
71948;BME280;59820;55.076;38.766;2022-08-03T05:30:24;99989.47;;;20.89;59.99
71948;BME280;59820;55.076;38.766;2022-08-03T05:32:50;99999.84;;;21.01;59.49
71948;BME280;59820;55.076;38.766;2022-08-03T05:35:20;99999.13;;;21.09;59.34
71948;BME280;59820;55.076;38.766;2022-08-03T05:37:49;99997.53;;;21.16;59.26
71948;BME280;59820;55.076;38.766;2022-08-03T05:40:15;99994.00;;;21.16;59.10
71948;BME280;59820;55.076;38.766;2022-08-03T05:42:43;99997.53;;;21.16;59.49
71948;BME280;59820;55.076;38.766;2022-08-03T05:45:15;99998.81;;;21.12;59.62
71948;BME280;59820;55.076;38.766;2022-08-03T05:47:47;99991.47;;;21.14;59.94
71948;BME280;59820;55.076;38.766;2022-08-03T05:50:15;100023.16;;;21.29;59.89
71948;BME280;59820;55.076;38.766;2022-08-03T05:52:40;100029.19;;;21.41;59.89
71948;BME280;59820;55.076;38.766;2022-08-03T05:55:09;100037.34;;;21.49;60.44
71948;BME280;59820;55.076;38.766;2022-08-03T05:57:37;100038.75;;;21.53;59.98
71948;BME280;59820;55.076;38.766;2022-08-03T06:00:08;100033.31;;;21.63;59.68
71948;BME280;59820;55.076;38.766;2022-08-03T06:02:38;100049.16;;;21.84;59.61
71948;BME280;59820;55.076;38.766;2022-08-03T06:05:05;100043.53;;;21.95;59.53
71948;BME280;59820;55.076;38.766;2022-08-03T06:07:31;100059.81;;;22.12;59.12
71948;BME280;59820;55.076;38.766;2022-08-03T06:09:58;100050.31;;;22.17;58.41
71948;BME280;59820;55.076;38.766;2022-08-03T06:12:27;100054.22;;;22.23;58.24
71948;BME280;59820;55.076;38.766;2022-08-03T06:14:52;100056.38;;;22.38;57.64
71948;BME280;59820;55.076;38.766;2022-08-03T06:17:18;100047.22;;;22.48;57.65
71948;BME280;59820;55.076;38.766;2022-08-03T06:19:44;100051.19;;;22.62;56.87
71948;BME280;59820;55.076;38.766;2022-08-03T06:22:10;100050.84;;;22.83;56.79
71948;BME280;59820;55.076;38.766;2022-08-03T06:24:37;100059.34;;;23.05;55.99
71948;BME280;59820;55.076;38.766;2022-08-03T06:27:03;100050.72;;;23.19;54.50
71948;BME280;59820;55.076;38.766;2022-08-03T06:29:29;100049.88;;;23.27;53.93
71948;BME280;59820;55.076;38.766;2022-08-03T06:31:55;100044.50;;;23.27;53.30
71948;BME280;59820;55.076;38.766;2022-08-03T06:34:21;100043.88;;;23.33;53.59
71948;BME280;59820;55.076;38.766;2022-08-03T06:36:47;100054.53;;;23.51;53.37
71948;BME280;59820;55.076;38.766;2022-08-03T06:39:16;100042.06;;;23.50;53.37
71948;BME280;59820;55.076;38.766;2022-08-03T06:44:12;100058.09;;;23.60;52.09
71948;BME280;59820;55.076;38.766;2022-08-03T06:46:37;100057.44;;;23.66;52.50
71948;BME280;59820;55.076;38.766;2022-08-03T06:49:03;100061.16;;;23.74;52.65
71948;BME280;59820;55.076;38.766;2022-08-03T06:51:29;100057.47;;;23.83;52.39
71948;BME280;59820;55.076;38.766;2022-08-03T06:53:56;100065.41;;;23.84;52.02
71948;BME280;59820;55.076;38.766;2022-08-03T06:56:22;100058.19;;;23.93;52.16
71948;BME280;59820;55.076;38.766;2022-08-03T06:58:48;100048.44;;;23.92;51.76
71948;BME280;59820;55.076;38.766;2022-08-03T07:01:14;100063.09;;;24.06;51.70
71948;BME280;59820;55.076;38.766;2022-08-03T07:03:40;100046.56;;;23.93;50.65
71948;BME280;59820;55.076;38.766;2022-08-03T07:06:06;100055.69;;;24.16;50.78
71948;BME280;59820;55.076;38.766;2022-08-03T07:08:33;100060.09;;;24.26;51.30
71948;BME280;59820;55.076;38.766;2022-08-03T07:10:58;100051.81;;;24.19;51.31
71948;BME280;59820;55.076;38.766;2022-08-03T07:13:24;100049.63;;;24.22;51.35
71948;BME280;59820;55.076;38.766;2022-08-03T07:15:50;100055.38;;;24.36;51.32
71948;BME280;59820;55.076;38.766;2022-08-03T07:18:16;100064.47;;;24.43;50.74
71948;BME280;59820;55.076;38.766;2022-08-03T07:20:42;100059.91;;;24.52;51.16
71948;BME280;59820;55.076;38.766;2022-08-03T07:23:09;100048.28;;;24.60;50.58
71948;BME280;59820;55.076;38.766;2022-08-03T07:25:35;100051.81;;;24.68;50.25
71948;BME280;59820;55.076;38.766;2022-08-03T07:28:01;100060.06;;;24.83;50.00
71948;BME280;59820;55.076;38.766;2022-08-03T07:30:27;100047.28;;;24.77;49.62
71948;BME280;59820;55.076;38.766;2022-08-03T07:32:53;100071.31;;;25.03;49.39
71948;BME280;59820;55.076;38.766;2022-08-03T07:35:19;100059.47;;;25.13;48.99
71948;BME280;59820;55.076;38.766;2022-08-03T07:37:47;100056.75;;;25.13;48.81
71948;BME280;59820;55.076;38.766;2022-08-03T07:40:16;100059.13;;;25.16;48.10
71948;BME280;59820;55.076;38.766;2022-08-03T07:42:42;100044.09;;;25.21;48.36
71948;BME280;59820;55.076;38.766;2022-08-03T07:45:08;100065.66;;;25.38;47.54
71948;BME280;59820;55.076;38.766;2022-08-03T07:47:34;100067.59;;;25.52;47.89
71948;BME280;59820;55.076;38.766;2022-08-03T07:50:00;100062.34;;;25.59;47.28
71948;BME280;59820;55.076;38.766;2022-08-03T07:52:52;100069.75;;;25.65;46.76
71948;BME280;59820;55.076;38.766;2022-08-03T07:55:24;100067.53;;;25.69;46.48
71948;BME280;59820;55.076;38.766;2022-08-03T07:58:00;100058.09;;;25.65;45.56
71948;BME280;59820;55.076;38.766;2022-08-03T08:00:26;100068.53;;;25.76;47.11
71948;BME280;59820;55.076;38.766;2022-08-03T08:02:53;100051.03;;;25.87;45.21
71948;BME280;59820;55.076;38.766;2022-08-03T08:05:19;100069.66;;;26.13;44.88
71948;BME280;59820;55.076;38.766;2022-08-03T08:07:45;100074.16;;;26.21;44.98
71948;BME280;59820;55.076;38.766;2022-08-03T08:10:11;100073.25;;;26.29;44.64
71948;BME280;59820;55.076;38.766;2022-08-03T08:12:38;100074.56;;;26.33;44.07
71948;BME280;59820;55.076;38.766;2022-08-03T08:15:05;100075.69;;;26.38;44.40
71948;BME280;59820;55.076;38.766;2022-08-03T08:17:50;100075.44;;;26.48;43.93
71948;BME280;59820;55.076;38.766;2022-08-03T08:20:22;100055.69;;;26.48;41.55
71948;BME280;59820;55.076;38.766;2022-08-03T08:22:48;100066.69;;;26.61;41.51
71948;BME280;59820;55.076;38.766;2022-08-03T08:25:14;100074.16;;;26.59;40.28
71948;BME280;59820;55.076;38.766;2022-08-03T08:27:46;100073.34;;;26.58;40.56
71948;BME280;59820;55.076;38.766;2022-08-03T08:30:14;100062.13;;;26.62;40.66
71948;BME280;59820;55.076;38.766;2022-08-03T08:32:41;100061.72;;;26.73;40.13
71948;BME280;59820;55.076;38.766;2022-08-03T08:35:07;100061.63;;;26.81;40.08
71948;BME280;59820;55.076;38.766;2022-08-03T08:37:34;100060.16;;;26.94;39.56
71948;BME280;59820;55.076;38.766;2022-08-03T08:40:01;100067.25;;;27.09;39.63
71948;BME280;59820;55.076;38.766;2022-08-03T08:42:30;100063.41;;;27.19;39.18
71948;BME280;59820;55.076;38.766;2022-08-03T08:44:56;100040.72;;;27.05;37.93
71948;BME280;59820;55.076;38.766;2022-08-03T08:47:24;100065.41;;;27.40;38.04
71948;BME280;59820;55.076;38.766;2022-08-03T08:49:52;100066.69;;;27.44;37.02
71948;BME280;59820;55.076;38.766;2022-08-03T08:52:27;100052.31;;;27.29;36.46
71948;BME280;59820;55.076;38.766;2022-08-03T08:54:59;100061.53;;;27.34;35.81
71948;BME280;59820;55.076;38.766;2022-08-03T08:57:37;100045.41;;;27.41;36.81
71948;BME280;59820;55.076;38.766;2022-08-03T09:00:08;100074.81;;;27.59;35.90
71948;BME280;59820;55.076;38.766;2022-08-03T09:02:37;100070.03;;;27.46;35.59
71948;BME280;59820;55.076;38.766;2022-08-03T09:05:05;100076.94;;;27.34;36.08
71948;BME280;59820;55.076;38.766;2022-08-03T09:07:31;100070.81;;;27.40;35.73
71948;BME280;59820;55.076;38.766;2022-08-03T09:09:57;100076.75;;;27.50;36.41
71948;BME280;59820;55.076;38.766;2022-08-03T09:12:26;100066.50;;;27.46;36.10
71948;BME280;59820;55.076;38.766;2022-08-03T09:14:51;100076.44;;;27.75;35.67
71948;BME280;59820;55.076;38.766;2022-08-03T09:17:18;100074.78;;;27.96;35.61
71948;BME280;59820;55.076;38.766;2022-08-03T09:20:13;100066.53;;;28.04;35.35
71948;BME280;59820;55.076;38.766;2022-08-03T09:25:32;100038.59;;;27.67;35.36
71948;BME280;59820;55.076;38.766;2022-08-03T09:28:11;100080.91;;;27.83;34.60
71948;BME280;59820;55.076;38.766;2022-08-03T09:30:40;100062.53;;;28.00;34.89
71948;BME280;59820;55.076;38.766;2022-08-03T09:33:08;100053.19;;;27.87;34.06
71948;BME280;59820;55.076;38.766;2022-08-03T09:35:45;100065.53;;;28.05;35.53
71948;BME280;59820;55.076;38.766;2022-08-03T09:38:17;100080.59;;;28.29;34.60
71948;BME280;59820;55.076;38.766;2022-08-03T09:40:50;100059.44;;;28.24;33.97
71948;BME280;59820;55.076;38.766;2022-08-03T09:43:17;100067.00;;;28.29;34.63
71948;BME280;59820;55.076;38.766;2022-08-03T09:45:43;100076.50;;;28.40;33.84
71948;BME280;59820;55.076;38.766;2022-08-03T09:48:23;100079.25;;;28.68;33.44
71948;BME280;59820;55.076;38.766;2022-08-03T09:50:59;100079.09;;;28.76;33.18
71948;BME280;59820;55.076;38.766;2022-08-03T09:53:25;100073.88;;;28.75;33.12
71948;BME280;59820;55.076;38.766;2022-08-03T09:55:56;100074.84;;;28.96;32.64
71948;BME280;59820;55.076;38.766;2022-08-03T09:58:24;100074.44;;;28.99;32.49
71948;BME280;59820;55.076;38.766;2022-08-03T10:00:54;100071.84;;;29.19;32.81
71948;BME280;59820;55.076;38.766;2022-08-03T10:03:22;100065.09;;;29.43;32.69
71948;BME280;59820;55.076;38.766;2022-08-03T10:05:48;100072.72;;;29.68;32.56
71948;BME280;59820;55.076;38.766;2022-08-03T10:08:15;100073.66;;;29.95;32.27
71948;BME280;59820;55.076;38.766;2022-08-03T10:10:44;100056.28;;;30.03;31.91
71948;BME280;59820;55.076;38.766;2022-08-03T10:13:12;100079.16;;;30.35;31.40
71948;BME280;59820;55.076;38.766;2022-08-03T10:15:40;100078.56;;;30.53;32.31
71948;BME280;59820;55.076;38.766;2022-08-03T10:18:06;100078.34;;;30.55;30.07
71948;BME280;59820;55.076;38.766;2022-08-03T10:20:37;100044.00;;;30.54;29.70
71948;BME280;59820;55.076;38.766;2022-08-03T10:23:06;100080.63;;;30.78;30.42
71948;BME280;59820;55.076;38.766;2022-08-03T10:25:33;100081.88;;;30.82;28.92
71948;BME280;59820;55.076;38.766;2022-08-03T10:28:01;100076.81;;;30.99;31.19
71948;BME280;59820;55.076;38.766;2022-08-03T10:30:34;100069.53;;;30.86;30.47
71948;BME280;59820;55.076;38.766;2022-08-03T10:33:12;100072.41;;;31.18;30.47
71948;BME280;59820;55.076;38.766;2022-08-03T10:35:40;100066.03;;;31.38;31.36
71948;BME280;59820;55.076;38.766;2022-08-03T10:38:11;100085.66;;;31.67;31.49
71948;BME280;59820;55.076;38.766;2022-08-03T10:40:41;100081.81;;;31.81;29.07
71948;BME280;59820;55.076;38.766;2022-08-03T10:43:19;100081.81;;;31.81;29.74
71948;BME280;59820;55.076;38.766;2022-08-03T10:45:47;100078.31;;;31.74;28.11
71948;BME280;59820;55.076;38.766;2022-08-03T10:48:18;100062.38;;;31.64;27.90
71948;BME280;59820;55.076;38.766;2022-08-03T10:50:45;100076.72;;;31.91;28.97
71948;BME280;59820;55.076;38.766;2022-08-03T10:53:11;100062.06;;;31.86;26.84
71948;BME280;59820;55.076;38.766;2022-08-03T10:55:39;100090.25;;;31.73;27.88
71948;BME280;59820;55.076;38.766;2022-08-03T11:01:11;100084.97;;;31.26;30.00
71948;BME280;59820;55.076;38.766;2022-08-03T11:06:24;100085.81;;;31.13;29.19
71948;BME280;59820;55.076;38.766;2022-08-03T11:11:40;100065.75;;;30.81;29.87
71948;BME280;59820;55.076;38.766;2022-08-03T11:14:13;100085.03;;;30.79;30.67
71948;BME280;59820;55.076;38.766;2022-08-03T11:16:42;100091.53;;;30.51;31.05
71948;BME280;59820;55.076;38.766;2022-08-03T11:19:17;100064.91;;;30.26;31.74
71948;BME280;59820;55.076;38.766;2022-08-03T11:22:12;100092.97;;;30.40;31.57
71948;BME280;59820;55.076;38.766;2022-08-03T11:27:15;100092.38;;;31.05;31.09
71948;BME280;59820;55.076;38.766;2022-08-03T11:30:04;100095.28;;;31.76;29.55
71948;BME280;59820;55.076;38.766;2022-08-03T11:35:14;100089.41;;;32.43;29.48
71948;BME280;59820;55.076;38.766;2022-08-03T11:40:41;100095.25;;;32.97;28.60
71948;BME280;59820;55.076;38.766;2022-08-03T11:48:44;100077.84;;;33.65;25.92
71948;BME280;59820;55.076;38.766;2022-08-03T11:53:45;100081.56;;;33.90;26.12
71948;BME280;59820;55.076;38.766;2022-08-03T11:56:14;100076.19;;;33.83;26.00
71948;BME280;59820;55.076;38.766;2022-08-03T11:58:47;100087.38;;;33.93;25.56
71948;BME280;59820;55.076;38.766;2022-08-03T12:01:14;100081.28;;;33.61;26.45
71948;BME280;59820;55.076;38.766;2022-08-03T12:03:42;100079.69;;;33.72;24.96
71948;BME280;59820;55.076;38.766;2022-08-03T12:12:29;100066.72;;;34.99;24.04
71948;BME280;59820;55.076;38.766;2022-08-03T12:14:55;100061.47;;;35.09;21.78
71948;BME280;59820;55.076;38.766;2022-08-03T12:17:22;100066.09;;;35.32;22.75
71948;BME280;59820;55.076;38.766;2022-08-03T12:19:52;100066.13;;;35.61;24.33
71948;BME280;59820;55.076;38.766;2022-08-03T12:22:33;100064.06;;;35.97;22.74
71948;BME280;59820;55.076;38.766;2022-08-03T12:24:59;100047.16;;;36.06;21.68
71948;BME280;59820;55.076;38.766;2022-08-03T12:31:38;100068.63;;;36.26;20.95
71948;BME280;59820;55.076;38.766;2022-08-03T12:34:05;100070.31;;;36.10;21.23
71948;BME280;59820;55.076;38.766;2022-08-03T12:39:55;100043.53;;;35.19;22.82
71948;BME280;59820;55.076;38.766;2022-08-03T12:46:37;100067.19;;;35.60;21.53
71948;BME280;59820;55.076;38.766;2022-08-03T12:53:51;100073.38;;;34.67;22.32
71948;BME280;59820;55.076;38.766;2022-08-03T12:56:17;100079.00;;;34.96;23.67
71948;BME280;59820;55.076;38.766;2022-08-03T12:58:44;100061.56;;;35.14;21.84
71948;BME280;59820;55.076;38.766;2022-08-03T13:01:10;100056.47;;;34.94;22.69
71948;BME280;59820;55.076;38.766;2022-08-03T13:03:44;100067.28;;;35.13;21.98
71948;BME280;59820;55.076;38.766;2022-08-03T13:10:07;100073.09;;;35.69;20.79
71948;BME280;59820;55.076;38.766;2022-08-03T13:12:45;100070.72;;;35.32;22.00
71948;BME280;59820;55.076;38.766;2022-08-03T13:15:13;100073.34;;;35.67;22.15
71948;BME280;59820;55.076;38.766;2022-08-03T13:24:39;100040.22;;;36.71;21.22
71948;BME280;59820;55.076;38.766;2022-08-03T13:27:06;100060.78;;;37.25;20.15
71948;BME280;59820;55.076;38.766;2022-08-03T13:29:35;100070.38;;;37.66;20.08
71948;BME280;59820;55.076;38.766;2022-08-03T13:32:02;100061.53;;;37.64;19.01
71948;BME280;59820;55.076;38.766;2022-08-03T13:34:30;100069.47;;;38.10;19.74
71948;BME280;59820;55.076;38.766;2022-08-03T13:37:04;100057.06;;;36.75;20.70
71948;BME280;59820;55.076;38.766;2022-08-03T13:39:30;100063.97;;;35.52;22.30
71948;BME280;59820;55.076;38.766;2022-08-03T13:41:56;100060.25;;;34.58;22.99
71948;BME280;59820;55.076;38.766;2022-08-03T13:44:22;100052.84;;;33.80;24.15
71948;BME280;59820;55.076;38.766;2022-08-03T13:46:49;100064.22;;;33.47;25.27
71948;BME280;59820;55.076;38.766;2022-08-03T13:49:15;100063.41;;;33.28;25.56
71948;BME280;59820;55.076;38.766;2022-08-03T13:51:41;100068.03;;;33.76;25.06
71948;BME280;59820;55.076;38.766;2022-08-03T13:54:07;100056.16;;;34.25;24.05
71948;BME280;59820;55.076;38.766;2022-08-03T13:56:35;100061.59;;;34.79;24.07
71948;BME280;59820;55.076;38.766;2022-08-03T14:03:21;100065.78;;;35.75;21.74
71948;BME280;59820;55.076;38.766;2022-08-03T14:05:48;100049.00;;;35.71;20.95
71948;BME280;59820;55.076;38.766;2022-08-03T14:08:14;100042.00;;;35.80;21.08
71948;BME280;59820;55.076;38.766;2022-08-03T14:10:42;100066.16;;;35.78;21.18